createdAt,value
2023-04-09T00:00:28.558Z,10.48
2023-04-09T00:02:56.483Z,11.80
2023-04-09T00:05:23.943Z,10.40
2023-04-09T00:07:51.711Z,12.40
2023-04-09T00:10:19.089Z,12.05
2023-04-09T00:12:46.970Z,13.40
2023-04-09T00:15:27.785Z,9.23
2023-04-09T00:17:58.333Z,11.00
2023-04-09T00:20:26.300Z,10.48
2023-04-09T00:22:56.668Z,10.98
2023-04-09T00:25:24.950Z,9.95
2023-04-09T00:27:52.447Z,12.85
2023-04-09T00:30:19.935Z,13.25
2023-04-09T00:32:47.944Z,10.82
2023-04-09T00:35:18.027Z,11.23
2023-04-09T00:37:45.846Z,11.45
2023-04-09T00:40:13.124Z,12.95
2023-04-09T00:42:40.668Z,10.98
2023-04-09T00:45:09.092Z,12.43
2023-04-09T00:47:36.969Z,13.75
2023-04-09T00:50:04.904Z,12.00
2023-04-09T00:52:39.233Z,12.45
2023-04-09T00:55:07.146Z,11.10
2023-04-09T00:57:34.637Z,10.52
2023-04-09T01:02:58.912Z,10.55
2023-04-09T01:05:42.283Z,11.25
2023-04-09T01:08:33.769Z,14.43
2023-04-09T01:11:11.090Z,11.23
2023-04-09T01:13:48.064Z,10.48
2023-04-09T01:16:17.541Z,10.82
2023-04-09T01:18:56.833Z,12.73
2023-04-09T01:21:32.358Z,11.15
2023-04-09T01:24:18.737Z,14.07
2023-04-09T01:27:01.943Z,11.50
2023-04-09T01:29:35.908Z,12.57
2023-04-09T01:32:05.350Z,11.05
2023-04-09T01:34:33.646Z,9.55
2023-04-09T01:37:04.380Z,10.90
2023-04-09T01:39:32.586Z,11.30
2023-04-09T01:42:04.088Z,11.77
2023-04-09T01:44:33.211Z,11.70
2023-04-09T01:47:02.131Z,10.82
2023-04-09T01:49:30.489Z,10.20
2023-04-09T01:51:58.240Z,10.98
2023-04-09T01:54:25.808Z,11.30
2023-04-09T01:56:55.653Z,11.05
2023-04-09T01:59:23.762Z,12.57
2023-04-09T02:01:58.620Z,12.55
2023-04-09T02:04:46.755Z,14.25
2023-04-09T02:07:39.962Z,12.82
2023-04-09T02:10:10.557Z,13.80
2023-04-09T02:12:41.025Z,11.43
2023-04-09T02:15:09.536Z,14.00
2023-04-09T02:17:37.624Z,11.32
2023-04-09T02:20:05.928Z,15.00
2023-04-09T02:22:33.730Z,14.57
2023-04-09T02:25:01.180Z,14.00
2023-04-09T02:27:28.585Z,12.80
2023-04-09T02:29:55.671Z,13.98
2023-04-09T02:32:23.286Z,13.65
2023-04-09T02:34:50.795Z,17.23
2023-04-09T02:37:30.496Z,16.55
2023-04-09T02:39:58.417Z,21.50
2023-04-09T02:42:25.871Z,18.40
2023-04-09T02:44:55.982Z,21.00
2023-04-09T02:47:23.456Z,22.92
2023-04-09T02:49:50.699Z,21.10
2023-04-09T02:52:20.288Z,17.98
2023-04-09T02:54:49.973Z,22.25
2023-04-09T02:57:17.358Z,17.83
2023-04-09T02:59:46.241Z,23.17
2023-04-09T03:02:13.740Z,21.25
2023-04-09T03:04:41.088Z,19.33
2023-04-09T03:07:08.503Z,22.25
2023-04-09T03:09:37.211Z,21.02
2023-04-09T03:12:04.671Z,20.08
2023-04-09T03:14:33.330Z,20.63
2023-04-09T03:17:04.604Z,22.58
2023-04-09T03:19:32.124Z,20.77
2023-04-09T03:21:59.382Z,21.80
2023-04-09T03:24:28.963Z,20.63
2023-04-09T03:26:57.626Z,21.42
2023-04-09T03:29:34.173Z,21.33
2023-04-09T03:32:01.608Z,21.52
2023-04-09T03:34:29.103Z,18.60
2023-04-09T03:36:56.624Z,20.77
2023-04-09T03:39:26.966Z,21.27
2023-04-09T03:41:55.025Z,19.00
2023-04-09T03:44:22.650Z,17.90
2023-04-09T03:46:49.746Z,19.65
2023-04-09T03:49:16.847Z,21.05
2023-04-09T03:51:44.797Z,19.00
2023-04-09T03:54:12.186Z,19.48
2023-04-09T03:56:39.754Z,20.73
2023-04-09T03:59:07.487Z,18.25
2023-04-09T04:01:35.385Z,19.80
2023-04-09T04:04:03.077Z,19.67
2023-04-09T04:06:33.135Z,20.65
2023-04-09T04:09:00.141Z,19.10
2023-04-09T04:11:27.367Z,20.10
2023-04-09T04:13:56.421Z,18.42
2023-04-09T04:16:23.443Z,17.95
2023-04-09T04:18:52.809Z,17.85
2023-04-09T04:21:20.177Z,15.93
2023-04-09T04:23:47.278Z,19.90
2023-04-09T04:26:17.253Z,21.05
2023-04-09T04:28:46.385Z,16.17
2023-04-09T04:31:14.009Z,18.33
2023-04-09T04:33:42.417Z,16.40
2023-04-09T04:36:14.422Z,19.27
2023-04-09T04:38:42.709Z,16.98
2023-04-09T04:41:13.815Z,20.67
2023-04-09T04:43:41.692Z,22.17
2023-04-09T04:46:09.628Z,18.17
2023-04-09T04:48:37.550Z,21.40
2023-04-09T04:51:09.489Z,18.15
2023-04-09T04:53:38.132Z,20.98
2023-04-09T04:56:05.630Z,19.33
2023-04-09T04:58:44.067Z,18.65
2023-04-09T05:03:47.225Z,18.88
2023-04-09T05:06:14.397Z,19.30
2023-04-09T05:08:41.789Z,19.13
2023-04-09T05:11:12.905Z,17.33
2023-04-09T05:13:40.208Z,15.68
2023-04-09T05:16:07.917Z,15.70
2023-04-09T05:18:35.298Z,13.00
2023-04-09T05:21:02.611Z,11.48
2023-04-09T05:23:30.159Z,12.38
2023-04-09T05:25:57.790Z,11.48
2023-04-09T05:28:25.281Z,12.07
2023-04-09T05:30:52.490Z,11.82
2023-04-09T05:33:20.102Z,9.25
2023-04-09T05:35:47.408Z,13.43
2023-04-09T05:38:14.567Z,10.02
2023-04-09T05:40:42.618Z,10.90
2023-04-09T05:43:09.987Z,11.52
2023-04-09T05:45:37.888Z,11.40
2023-04-09T05:48:05.406Z,11.80
2023-04-09T05:50:38.155Z,11.85
2023-04-09T05:53:11.785Z,12.88
2023-04-09T05:55:39.196Z,13.38
2023-04-09T05:58:06.528Z,14.25
2023-04-09T06:00:33.728Z,16.42
2023-04-09T06:03:01.473Z,15.70
2023-04-09T06:05:30.888Z,15.02
2023-04-09T06:08:01.460Z,14.15
2023-04-09T06:10:29.262Z,15.52
2023-04-09T06:12:56.597Z,12.60
2023-04-09T06:15:23.711Z,14.82
2023-04-09T06:17:51.163Z,13.70
2023-04-09T06:20:18.475Z,16.35
2023-04-09T06:22:46.089Z,16.50
2023-04-09T06:25:13.159Z,16.65
2023-04-09T06:27:40.250Z,15.85
2023-04-09T06:30:08.371Z,18.65
2023-04-09T06:32:50.933Z,19.33
2023-04-09T06:35:21.268Z,17.33
2023-04-09T06:37:49.208Z,17.70
2023-04-09T06:40:16.902Z,18.60
2023-04-09T06:42:44.248Z,19.08
2023-04-09T06:45:11.703Z,17.80
2023-04-09T06:47:39.778Z,18.23
2023-04-09T06:50:08.047Z,18.65
2023-04-09T06:52:36.100Z,18.00
2023-04-09T06:55:03.361Z,18.38
2023-04-09T06:57:33.508Z,15.20
2023-04-09T07:00:00.838Z,14.82
2023-04-09T07:02:31.213Z,18.33
2023-04-09T07:07:26.626Z,15.13
2023-04-09T07:09:55.046Z,17.23
2023-04-09T07:12:35.312Z,16.48
2023-04-09T07:15:04.095Z,19.98
2023-04-09T07:17:32.016Z,19.45
2023-04-09T07:19:59.129Z,17.30
2023-04-09T07:22:31.295Z,16.50
2023-04-09T07:24:58.650Z,17.85
2023-04-09T07:27:29.584Z,15.05
2023-04-09T07:29:58.689Z,14.02
2023-04-09T07:32:28.545Z,17.25
2023-04-09T07:35:00.552Z,13.38
2023-04-09T07:37:28.158Z,14.57
2023-04-09T07:39:55.864Z,14.68
2023-04-09T07:42:23.175Z,14.13
2023-04-09T07:44:53.953Z,13.65
2023-04-09T07:47:21.930Z,12.80
2023-04-09T07:49:49.196Z,16.65
2023-04-09T07:52:17.163Z,14.68
2023-04-09T07:54:44.396Z,15.57
2023-04-09T07:57:11.950Z,15.13
2023-04-09T07:59:39.716Z,15.32
2023-04-09T08:02:08.015Z,16.45
2023-04-09T08:04:36.137Z,16.38
2023-04-09T08:07:05.064Z,11.57
2023-04-09T08:09:32.563Z,17.02
2023-04-09T08:12:00.281Z,12.20
2023-04-09T08:14:27.555Z,13.68
2023-04-09T08:16:55.259Z,14.57
2023-04-09T08:19:23.239Z,12.15
2023-04-09T08:24:33.101Z,12.63
2023-04-09T08:27:06.563Z,12.70
2023-04-09T08:29:34.951Z,12.73
2023-04-09T08:32:02.401Z,14.00
2023-04-09T08:34:29.839Z,12.30
2023-04-09T08:36:57.597Z,11.95
2023-04-09T08:39:25.767Z,11.55
2023-04-09T08:41:56.442Z,12.77
2023-04-09T08:44:27.041Z,12.02
2023-04-09T08:47:00.835Z,14.85
2023-04-09T08:49:28.732Z,13.27
2023-04-09T08:51:55.961Z,13.13
2023-04-09T08:54:27.297Z,13.43
2023-04-09T08:56:54.859Z,12.63
2023-04-09T08:59:24.563Z,13.23
2023-04-09T09:02:08.331Z,12.70
2023-04-09T09:04:49.292Z,14.30
2023-04-09T09:07:17.592Z,12.95
2023-04-09T09:09:55.803Z,13.02
2023-04-09T09:12:40.945Z,12.80
2023-04-09T09:15:28.897Z,12.85
2023-04-09T09:17:58.396Z,12.02
2023-04-09T09:20:27.348Z,11.82
2023-04-09T09:22:57.076Z,12.35
2023-04-09T09:25:26.410Z,13.55
2023-04-09T09:27:54.949Z,12.98
2023-04-09T09:30:27.638Z,12.00
2023-04-09T09:33:06.098Z,12.45
2023-04-09T09:38:32.385Z,11.40
2023-04-09T09:41:16.563Z,12.70
2023-04-09T09:43:44.375Z,11.50
2023-04-09T09:46:12.842Z,11.40
2023-04-09T09:48:43.564Z,9.93
2023-04-09T09:51:12.889Z,12.00
2023-04-09T09:53:49.676Z,10.98
2023-04-09T09:56:22.096Z,10.55
2023-04-09T09:59:05.108Z,10.00
2023-04-09T10:01:33.549Z,11.10
2023-04-09T10:04:02.901Z,10.50
2023-04-09T10:06:31.047Z,10.25
2023-04-09T10:09:01.038Z,11.55
2023-04-09T10:13:59.280Z,11.75
2023-04-09T10:16:28.750Z,11.23
2023-04-09T10:19:08.063Z,10.25
2023-04-09T10:21:58.203Z,9.40
2023-04-09T10:24:35.106Z,10.27
2023-04-09T10:27:19.304Z,8.68
2023-04-09T10:29:48.824Z,10.18
2023-04-09T10:32:21.911Z,10.48
2023-04-09T10:34:50.867Z,8.90
2023-04-09T10:37:25.418Z,8.50
2023-04-09T10:39:53.706Z,8.75
2023-04-09T10:42:43.216Z,8.18
2023-04-09T10:45:13.076Z,9.38
2023-04-09T10:47:42.942Z,9.25
2023-04-09T10:50:27.104Z,8.95
2023-04-09T10:53:00.533Z,10.10
2023-04-09T10:55:40.733Z,9.48
2023-04-09T10:58:12.219Z,9.90
2023-04-09T11:00:48.510Z,8.45
2023-04-09T11:03:23.425Z,8.52
2023-04-09T11:05:55.631Z,8.10
2023-04-09T11:08:22.993Z,8.48
2023-04-09T11:10:55.865Z,10.02
2023-04-09T11:13:23.525Z,12.32
2023-04-09T11:15:51.664Z,7.63
2023-04-09T11:18:27.765Z,7.50
2023-04-09T11:20:56.848Z,6.97
2023-04-09T11:23:25.072Z,9.70
2023-04-09T11:25:53.249Z,7.82
2023-04-09T11:28:21.185Z,8.30
2023-04-09T11:30:51.158Z,7.63
2023-04-09T11:33:19.966Z,7.78
2023-04-09T11:35:48.695Z,8.57
2023-04-09T11:38:16.381Z,8.20
2023-04-09T11:40:51.717Z,8.80
2023-04-09T11:43:21.180Z,9.25
2023-04-09T11:45:49.609Z,9.75
2023-04-09T11:48:22.048Z,8.65
2023-04-09T11:50:50.273Z,8.55
2023-04-09T11:53:22.913Z,9.05
2023-04-09T11:55:53.962Z,7.50
2023-04-09T11:58:36.715Z,10.18
2023-04-09T12:01:04.042Z,7.35
2023-04-09T12:03:33.721Z,7.85
2023-04-09T12:06:03.218Z,7.00
2023-04-09T12:08:31.586Z,7.47
2023-04-09T12:11:09.464Z,6.82
2023-04-09T12:13:37.363Z,7.68
2023-04-09T12:16:05.909Z,6.25
2023-04-09T12:18:37.627Z,8.23
2023-04-09T12:21:05.288Z,7.97
2023-04-09T12:23:33.544Z,7.13
2023-04-09T12:26:01.427Z,6.75
2023-04-09T12:28:29.710Z,5.75
2023-04-09T12:30:58.529Z,5.90
2023-04-09T12:33:28.701Z,6.53
2023-04-09T12:35:58.784Z,6.25
2023-04-09T12:38:27.056Z,6.03
2023-04-09T12:40:54.619Z,6.55
2023-04-09T12:43:22.390Z,6.60
2023-04-09T12:45:49.809Z,6.38
2023-04-09T12:48:17.236Z,5.85
2023-04-09T12:50:44.397Z,6.47
2023-04-09T12:53:12.300Z,7.85
2023-04-09T12:55:42.213Z,6.70
2023-04-09T12:58:10.113Z,6.18
2023-04-09T13:00:37.575Z,5.60
2023-04-09T13:03:05.136Z,6.88
2023-04-09T13:05:35.640Z,4.97
2023-04-09T13:08:03.629Z,5.93
2023-04-09T13:10:31.822Z,6.22
2023-04-09T13:12:59.743Z,7.07
2023-04-09T13:15:27.610Z,5.78
2023-04-09T13:17:56.484Z,5.93
2023-04-09T13:20:23.985Z,6.55
2023-04-09T13:22:55.589Z,6.20
2023-04-09T13:25:23.392Z,6.70
2023-04-09T13:27:54.179Z,7.22
2023-04-09T13:30:25.026Z,5.95
2023-04-09T13:32:55.138Z,5.70
2023-04-09T13:35:22.716Z,6.82
2023-04-09T13:37:50.151Z,5.68
2023-04-09T13:40:20.602Z,5.82
2023-04-09T13:42:50.302Z,6.18
2023-04-09T13:45:18.210Z,6.50
2023-04-09T13:47:45.331Z,5.10
2023-04-09T13:50:13.973Z,5.13
2023-04-09T13:52:41.494Z,6.25
2023-04-09T13:55:09.486Z,6.18
2023-04-09T13:57:36.877Z,5.60
2023-04-09T14:00:06.099Z,5.60
2023-04-09T14:02:33.528Z,4.30
2023-04-09T14:05:02.653Z,4.72
2023-04-09T14:07:33.196Z,5.70
2023-04-09T14:12:27.963Z,5.72
2023-04-09T14:14:55.242Z,5.28
2023-04-09T14:17:22.561Z,5.38
2023-04-09T14:19:49.761Z,5.13
2023-04-09T14:22:17.243Z,4.78
2023-04-09T14:24:44.247Z,5.05
2023-04-09T14:27:13.969Z,5.40
2023-04-09T14:29:41.926Z,4.88
2023-04-09T14:32:09.617Z,5.25
2023-04-09T14:34:37.251Z,4.55
2023-04-09T14:37:04.619Z,4.13
2023-04-09T14:39:31.980Z,4.88
2023-04-09T14:41:59.820Z,4.47
2023-04-09T14:44:27.887Z,5.13
2023-04-09T14:46:56.343Z,4.82
2023-04-09T14:49:32.738Z,3.78
2023-04-09T14:52:00.286Z,3.78
2023-04-09T14:54:29.296Z,5.30
2023-04-09T14:56:58.681Z,3.55
2023-04-09T14:59:26.378Z,5.10
2023-04-09T15:01:53.644Z,4.07
2023-04-09T15:04:21.624Z,4.68
2023-04-09T15:06:49.205Z,4.82
2023-04-09T15:09:16.473Z,3.15
2023-04-09T15:11:43.598Z,4.75
2023-04-09T15:14:13.550Z,4.32
2023-04-09T15:16:41.022Z,3.88
2023-04-09T15:19:08.511Z,5.43
2023-04-09T15:21:35.767Z,5.00
2023-04-09T15:24:03.871Z,5.32
2023-04-09T15:26:37.549Z,4.50
2023-04-09T15:29:08.009Z,3.65
2023-04-09T15:31:35.693Z,3.40
2023-04-09T15:34:03.506Z,4.55
2023-04-09T15:36:31.715Z,3.95
2023-04-09T15:38:59.379Z,4.32
2023-04-09T15:41:27.093Z,4.82
2023-04-09T15:43:57.077Z,4.38
2023-04-09T15:46:24.666Z,3.88
2023-04-09T15:48:52.020Z,3.80
2023-04-09T15:51:20.064Z,4.75
2023-04-09T15:53:47.591Z,4.13
2023-04-09T15:56:15.583Z,4.43
2023-04-09T15:58:46.613Z,4.70
2023-04-09T16:01:13.843Z,4.28
2023-04-09T16:03:41.571Z,4.43
2023-04-09T16:06:10.333Z,5.05
2023-04-09T16:08:38.547Z,3.80
2023-04-09T16:11:09.795Z,4.55
2023-04-09T16:13:40.034Z,4.47
2023-04-09T16:16:07.949Z,5.60
2023-04-09T16:18:36.002Z,5.65
2023-04-09T16:21:03.258Z,3.42
2023-04-09T16:23:30.962Z,4.03
2023-04-09T16:26:01.022Z,4.88
2023-04-09T16:30:58.327Z,4.10
2023-04-09T16:33:26.151Z,4.38
2023-04-09T16:35:53.560Z,3.95
2023-04-09T16:38:21.208Z,3.83
2023-04-09T16:40:48.483Z,4.32
2023-04-09T16:43:19.008Z,3.65
2023-04-09T16:45:54.871Z,4.05
2023-04-09T16:48:21.935Z,4.45
2023-04-09T16:50:49.234Z,3.03
2023-04-09T16:53:16.486Z,3.88
2023-04-09T16:55:45.256Z,4.03
2023-04-09T16:58:12.815Z,4.22
2023-04-09T17:00:40.179Z,4.05
2023-04-09T17:03:07.817Z,4.07
2023-04-09T17:05:35.778Z,3.78
2023-04-09T17:08:03.458Z,3.05
2023-04-09T17:10:36.558Z,3.38
2023-04-09T17:13:03.920Z,3.30
2023-04-09T17:15:31.637Z,3.90
2023-04-09T17:18:00.769Z,3.30
2023-04-09T17:20:29.957Z,3.17
2023-04-09T17:22:57.044Z,3.60
2023-04-09T17:25:24.432Z,3.65
2023-04-09T17:27:51.863Z,4.20
2023-04-09T17:30:20.718Z,4.10
2023-04-09T17:32:50.285Z,3.13
2023-04-09T17:37:45.294Z,4.47
2023-04-09T17:40:15.239Z,3.30
2023-04-09T17:42:43.061Z,3.63
2023-04-09T17:45:11.071Z,3.83
2023-04-09T17:47:39.407Z,3.42
2023-04-09T17:50:07.924Z,3.53
2023-04-09T17:52:37.440Z,3.33
2023-04-09T17:55:08.763Z,2.90
2023-04-09T17:57:36.041Z,3.08
2023-04-09T18:00:04.637Z,3.38
2023-04-09T18:02:33.000Z,3.53
2023-04-09T18:05:02.198Z,3.30
2023-04-09T18:07:35.695Z,5.05
2023-04-09T18:10:03.946Z,4.50
2023-04-09T18:12:31.127Z,3.08
2023-04-09T18:14:58.680Z,4.15
2023-04-09T18:17:26.683Z,6.22
2023-04-09T18:19:55.220Z,3.95
2023-04-09T18:22:23.192Z,3.80
2023-04-09T18:24:52.233Z,3.38
2023-04-09T18:27:20.699Z,4.13
2023-04-09T18:29:49.468Z,3.63
2023-04-09T18:32:17.299Z,4.00
2023-04-09T18:34:45.995Z,4.35
2023-04-09T18:37:13.372Z,3.80
2023-04-09T18:39:41.525Z,5.13
2023-04-09T18:42:08.682Z,4.50
2023-04-09T18:44:37.823Z,3.92
2023-04-09T18:47:09.217Z,4.95
2023-04-09T18:49:37.403Z,4.10
2023-04-09T18:52:09.554Z,3.08
2023-04-09T18:54:37.638Z,4.20
2023-04-09T18:57:05.719Z,4.28
2023-04-09T18:59:35.119Z,4.28
2023-04-09T19:02:07.217Z,5.53
2023-04-09T19:04:36.656Z,5.10
2023-04-09T19:07:04.261Z,4.90
2023-04-09T19:09:34.866Z,5.13
2023-04-09T19:12:02.272Z,4.15
2023-04-09T19:14:29.849Z,5.28
2023-04-09T19:16:58.824Z,5.63
2023-04-09T19:19:26.545Z,4.35
2023-04-09T19:21:54.016Z,4.68
2023-04-09T19:24:21.340Z,4.35
2023-04-09T19:26:49.028Z,4.35
2023-04-09T19:29:16.336Z,5.03
2023-04-09T19:31:44.452Z,5.13
2023-04-09T19:34:11.907Z,4.50
2023-04-09T19:36:39.273Z,4.88
2023-04-09T19:39:11.243Z,5.43
2023-04-09T19:41:38.477Z,4.28
2023-04-09T19:44:07.571Z,4.95
2023-04-09T19:46:35.647Z,4.60
2023-04-09T19:49:02.781Z,5.18
2023-04-09T19:51:29.833Z,5.35
2023-04-09T19:53:59.437Z,3.95
2023-04-09T19:56:27.118Z,5.32
2023-04-09T19:58:55.010Z,4.65
2023-04-09T20:01:22.805Z,4.72
2023-04-09T20:03:50.450Z,6.38
2023-04-09T20:06:18.628Z,4.63
2023-04-09T20:08:46.933Z,4.75
2023-04-09T20:11:18.070Z,5.43
2023-04-09T20:13:47.337Z,5.28
2023-04-09T20:16:16.735Z,5.18
2023-04-09T20:18:43.817Z,5.15
2023-04-09T20:21:14.596Z,5.65
2023-04-09T20:23:42.601Z,6.38
2023-04-09T20:26:14.010Z,5.25
2023-04-09T20:28:42.420Z,5.20
2023-04-09T20:31:10.034Z,5.32
2023-04-09T20:33:37.467Z,5.35
2023-04-09T20:36:06.856Z,5.38
2023-04-09T20:38:36.594Z,5.88
2023-04-09T20:41:04.286Z,4.68
2023-04-09T20:43:40.562Z,5.97
2023-04-09T20:46:08.668Z,5.43
2023-04-09T20:48:36.452Z,4.90
2023-04-09T20:51:09.082Z,4.93
2023-04-09T20:53:37.806Z,4.80
2023-04-09T20:56:06.418Z,5.10
2023-04-09T20:58:34.272Z,5.15
2023-04-09T21:01:07.182Z,4.95
2023-04-09T21:03:36.427Z,4.68
2023-04-09T21:06:04.711Z,5.43
2023-04-09T21:11:22.991Z,5.22
2023-04-09T21:13:55.349Z,4.75
2023-04-09T21:16:28.889Z,5.80
2023-04-09T21:18:56.959Z,4.53
2023-04-09T21:21:27.545Z,4.93
2023-04-09T21:23:55.264Z,5.47
2023-04-09T21:26:22.663Z,5.72
2023-04-09T21:28:53.002Z,6.20
2023-04-09T21:31:22.876Z,4.75
2023-04-09T21:33:55.730Z,5.60
2023-04-09T21:36:26.140Z,5.13
2023-04-09T21:38:56.675Z,6.97
2023-04-09T21:41:24.064Z,5.57
2023-04-09T21:43:51.377Z,5.22
2023-04-09T21:46:24.376Z,6.15
2023-04-09T21:48:51.988Z,5.28
2023-04-09T21:51:19.386Z,5.35
2023-04-09T21:53:47.714Z,4.85
2023-04-09T21:56:14.921Z,6.40
2023-04-09T21:58:42.154Z,8.02
2023-04-09T22:01:19.237Z,4.35
2023-04-09T22:03:53.784Z,5.47
2023-04-09T22:06:21.047Z,5.28
2023-04-09T22:08:55.371Z,5.53
2023-04-09T22:11:28.499Z,6.65
2023-04-09T22:13:56.739Z,4.60
2023-04-09T22:16:24.582Z,5.75
2023-04-09T22:18:57.047Z,6.03
2023-04-09T22:21:26.186Z,5.13
2023-04-09T22:23:53.307Z,6.63
2023-04-09T22:26:21.879Z,4.47
2023-04-09T22:28:49.646Z,6.15
2023-04-09T22:31:17.086Z,6.03
2023-04-09T22:33:44.450Z,5.75
2023-04-09T22:36:12.218Z,5.20
2023-04-09T22:38:39.969Z,5.45
2023-04-09T22:41:07.632Z,6.68
2023-04-09T22:43:35.002Z,5.28
2023-04-09T22:46:02.988Z,5.63
2023-04-09T22:48:30.498Z,4.65
2023-04-09T22:50:58.895Z,5.47
2023-04-09T22:53:26.082Z,8.23
2023-04-09T22:55:54.995Z,5.22
2023-04-09T22:58:22.622Z,5.18
2023-04-09T23:00:50.859Z,5.35
2023-04-09T23:03:20.518Z,5.88
2023-04-09T23:05:51.023Z,6.22
2023-04-09T23:08:28.324Z,5.75
2023-04-09T23:10:57.072Z,6.30
2023-04-09T23:13:24.759Z,6.22
2023-04-09T23:15:52.494Z,5.45
2023-04-09T23:18:20.040Z,6.03
2023-04-09T23:20:47.718Z,5.85
2023-04-09T23:23:15.199Z,7.40
2023-04-09T23:25:43.082Z,6.07
2023-04-09T23:28:10.446Z,5.63
2023-04-09T23:30:37.825Z,6.47
2023-04-09T23:33:05.298Z,5.40
2023-04-09T23:35:32.382Z,4.63
2023-04-09T23:38:00.122Z,6.78
2023-04-09T23:40:27.251Z,6.60
2023-04-09T23:42:54.789Z,5.85
2023-04-09T23:45:34.146Z,7.15
2023-04-09T23:48:03.410Z,5.70
2023-04-09T23:50:30.639Z,7.18
2023-04-09T23:53:00.062Z,7.18
2023-04-09T23:55:28.184Z,8.13
2023-04-09T23:57:55.878Z,5.80
